createdAt,value
2018-03-06T16:13:05.433Z,27.3
2018-03-06T16:13:58.221Z,27.3
2018-03-06T16:14:47.734Z,27.3
2018-03-06T16:15:38.036Z,27.3
2018-03-06T16:16:28.457Z,28.4
2018-03-06T16:17:18.253Z,29.9
2018-03-06T16:18:09.327Z,30.9
2018-03-06T16:18:59.109Z,31.8
2018-03-06T16:19:48.856Z,32.6
2018-03-06T16:20:38.608Z,33.1
2018-03-06T16:21:29.323Z,33.6
2018-03-06T16:22:18.158Z,34.1
2018-03-06T16:23:09.385Z,34.4
2018-03-06T16:23:59.173Z,34.8
2018-03-06T16:24:48.317Z,35.1
2018-03-06T16:25:39.247Z,35.3
2018-03-06T16:26:28.179Z,34.9
2018-03-06T16:27:19.072Z,34.6
2018-03-06T16:28:06.820Z,34.3
2018-03-06T16:28:59.791Z,33.8
2018-03-06T16:29:49.897Z,33.3
2018-03-06T16:30:39.592Z,32.8
2018-03-06T16:31:29.987Z,32.3
2018-03-06T16:32:19.821Z,31.8
2018-03-06T16:33:09.572Z,31.3
2018-03-06T16:33:59.807Z,30.8
2018-03-06T16:34:49.992Z,30.4
2018-03-06T16:35:39.749Z,30
2018-03-06T16:36:30.300Z,29.6
2018-03-06T16:37:19.469Z,29.4
2018-03-06T16:38:08.977Z,29.2
2018-03-06T16:38:59.321Z,28.9
2018-03-06T16:39:50.771Z,28.8
2018-03-06T16:40:40.570Z,28.6
2018-03-06T16:41:30.909Z,28.5
2018-03-06T16:42:20.701Z,28.4
2018-03-06T16:43:10.822Z,28.3
2018-03-06T16:44:00.838Z,28.1
2018-03-06T16:44:50.586Z,28.1
2018-03-06T16:45:40.640Z,27.9
2018-03-06T16:46:30.708Z,27.9
2018-03-06T16:48:10.890Z,27.7
2018-03-06T16:49:00.648Z,27.6
2018-03-06T16:49:50.383Z,27.6
2018-03-06T16:50:40.692Z,27.5
2018-03-06T16:51:30.752Z,27.4
2018-03-06T16:52:21.136Z,27.4
2018-03-06T16:53:10.573Z,27.6
2018-03-06T16:54:01.500Z,28.9
2018-03-06T16:54:51.546Z,30.3
2018-03-06T16:55:41.966Z,31.3
2018-03-06T16:56:31.403Z,32.1
2018-03-06T16:57:20.610Z,32.7
2018-03-06T16:58:12.073Z,33.2
2018-03-06T16:59:00.660Z,33.7
2018-03-06T16:59:51.611Z,34.1
2018-03-06T17:00:42.225Z,34.4
2018-03-06T17:01:32.310Z,34.8
2018-03-06T17:02:21.507Z,35.1
2018-03-06T17:03:12.457Z,35.3
2018-03-06T17:04:02.209Z,35.2
2018-03-06T17:04:53.126Z,34.7
2018-03-06T17:05:42.548Z,34.3
2018-03-06T17:06:32.063Z,33.9
2018-03-06T17:07:22.697Z,33.4
2018-03-06T17:08:12.442Z,32.8
2018-03-06T17:09:02.851Z,32.3
2018-03-06T17:09:52.321Z,31.8
2018-03-06T17:10:42.615Z,31.3
2018-03-06T17:11:32.402Z,30.8
2018-03-06T17:12:22.807Z,30.4
2018-03-06T17:13:12.028Z,29.9
2018-03-06T17:14:03.166Z,29.6
2018-03-06T17:14:53.191Z,29.3
2018-03-06T17:15:42.164Z,29.1
2018-03-06T17:16:32.742Z,28.9
2018-03-06T17:17:22.350Z,28.7
2018-03-06T17:18:12.870Z,28.6
2018-03-06T17:19:03.195Z,28.4
2018-03-06T17:19:53.277Z,28.3
2018-03-06T17:20:42.746Z,28.2
2018-03-06T17:21:33.390Z,28.1
2018-03-06T17:22:22.621Z,27.9
2018-03-06T17:23:14.018Z,27.9
2018-03-06T17:24:03.301Z,27.8
2018-03-06T17:24:53.061Z,27.7
2018-03-06T17:25:43.955Z,27.6
2018-03-06T17:26:34.024Z,27.5
2018-03-06T17:27:23.265Z,27.4
2018-03-06T17:28:13.865Z,28.3
2018-03-06T17:29:03.129Z,29.8
2018-03-06T17:29:54.053Z,30.8
2018-03-06T17:30:44.314Z,31.7
2018-03-06T17:31:33.754Z,32.3
2018-03-06T17:32:22.049Z,32.9
2018-03-06T17:33:12.603Z,33.4
2018-03-06T17:34:01.910Z,33.8
2018-03-06T17:34:52.526Z,34.2
2018-03-06T17:35:42.606Z,34.6
2018-03-06T17:36:32.046Z,34.8
2018-03-06T17:37:24.027Z,35.1
2018-03-06T17:38:12.890Z,35.3
2018-03-06T17:39:02.888Z,35.3
2018-03-06T17:39:53.521Z,34.8
2018-03-06T17:40:43.448Z,34.4
2018-03-06T17:41:32.596Z,33.9
2018-03-06T17:42:22.860Z,33.4
2018-03-06T17:43:13.670Z,32.9
2018-03-06T17:44:03.288Z,32.4
2018-03-06T17:44:52.301Z,31.9
2018-03-06T17:45:42.937Z,31.4
2018-03-06T17:46:33.211Z,30.9
2018-03-06T17:47:23.508Z,30.4
2018-03-06T17:48:13.802Z,30
2018-03-06T17:49:03.486Z,29.7
2018-03-06T17:49:53.533Z,29.4
2018-03-06T17:50:42.400Z,29.3
2018-03-06T17:51:33.502Z,29.1
2018-03-06T17:52:23.506Z,28.9
2018-03-06T17:53:13.584Z,28.8
2018-03-06T17:54:04.840Z,28.7
2018-03-06T17:54:55.684Z,28.6
2018-03-06T17:55:45.202Z,28.4
2018-03-06T17:56:35.822Z,28.6
2018-03-06T17:57:25.591Z,29.3
2018-03-06T17:58:14.912Z,30.8
2018-03-06T17:59:05.473Z,32.3
2018-03-06T17:59:55.003Z,33.6
2018-03-06T18:00:44.489Z,34.9
2018-03-06T18:01:34.596Z,35.9
2018-03-06T18:02:24.668Z,36.4
2018-03-06T18:03:13.484Z,36.5
2018-03-06T18:04:04.382Z,36.5
2018-03-06T18:04:54.957Z,36.3
2018-03-06T18:05:44.327Z,36.1
2018-03-06T18:06:35.518Z,35.9
2018-03-06T18:07:26.466Z,35.6
2018-03-06T18:08:16.091Z,35.2
2018-03-06T18:09:05.617Z,34.9
2018-03-06T18:09:56.233Z,34.6
2018-03-06T18:10:46.605Z,34.3
2018-03-06T18:11:36.856Z,33.9
2018-03-06T18:12:26.299Z,33.6
2018-03-06T18:13:16.927Z,33.3
2018-03-06T18:14:07.359Z,33.1
2018-03-06T18:14:55.946Z,32.8
2018-03-06T18:15:46.022Z,32.6
2018-03-06T18:16:36.960Z,32.3
2018-03-06T18:17:27.279Z,32.1
2018-03-06T18:18:17.309Z,31.8
2018-03-06T18:19:07.356Z,31.6
2018-03-06T18:19:56.861Z,31.4
2018-03-06T18:20:47.185Z,31.2
2018-03-06T18:21:37.006Z,31
2018-03-06T18:22:27.925Z,30.8
2018-03-06T18:23:17.661Z,30.6
2018-03-06T18:24:08.028Z,30.4
2018-03-06T18:24:57.484Z,30.3
2018-03-06T18:25:47.556Z,30.1
2018-03-06T18:26:38.183Z,29.9
2018-03-06T18:27:28.275Z,29.8
2018-03-06T18:28:17.713Z,29.6
2018-03-06T18:29:06.925Z,29.4
2018-03-06T18:29:57.113Z,29.3
2018-03-06T18:30:47.895Z,29.1
2018-03-06T18:31:38.585Z,29
2018-03-06T18:32:27.880Z,28.9
2018-03-06T18:33:17.803Z,28.8
2018-03-06T18:34:08.495Z,28.9
2018-03-06T18:34:58.322Z,30.2
2018-03-06T18:35:47.688Z,31.6
2018-03-06T18:36:38.043Z,32.9
2018-03-06T18:37:27.377Z,34.1
2018-03-06T18:38:18.041Z,35.2
2018-03-06T18:39:07.980Z,36
2018-03-06T18:39:58.492Z,36.4
2018-03-06T18:40:48.229Z,36.4
2018-03-06T18:41:39.289Z,36.3
2018-03-06T18:42:28.981Z,36.1
2018-03-06T18:43:18.718Z,35.9
2018-03-06T18:44:08.491Z,35.6
2018-03-06T18:44:59.677Z,35.3
2018-03-06T18:45:48.590Z,35
2018-03-06T18:46:39.582Z,34.7
2018-03-06T18:47:28.601Z,34.3
2018-03-06T18:48:18.921Z,34.1
2018-03-06T18:49:09.681Z,33.8
2018-03-06T18:49:59.521Z,33.4
2018-03-06T18:50:49.251Z,33.2
2018-03-06T18:51:38.336Z,32.9
2018-03-06T18:52:28.874Z,32.6
2018-03-06T18:53:20.036Z,32.3
2018-03-06T18:54:09.511Z,32.1
2018-03-06T18:54:59.373Z,31.8
2018-03-06T18:55:49.434Z,31.6
2018-03-06T18:56:39.522Z,31.4
2018-03-06T18:57:29.516Z,31.2
2018-03-06T18:58:20.067Z,30.9
2018-03-06T18:59:10.385Z,30.8
2018-03-06T19:00:00.420Z,30.6
2018-03-06T19:00:50.225Z,30.3
2018-03-06T19:01:38.801Z,30.1
2018-03-06T19:02:29.193Z,29.9
2018-03-06T19:03:20.404Z,29.8
2018-03-06T19:04:10.444Z,29.6
2018-03-06T19:05:00.497Z,29.4
2018-03-06T19:05:50.325Z,29.3
2018-03-06T19:06:40.857Z,29.1
2018-03-06T19:07:30.188Z,28.9
2018-03-06T19:08:20.176Z,28.8
2018-03-06T19:09:10.841Z,28.6
2018-03-06T19:10:00.273Z,28.6
2018-03-06T19:10:50.621Z,28.8
2018-03-06T19:11:40.937Z,30.1
2018-03-06T19:12:30.744Z,31.5
2018-03-06T19:13:21.398Z,32.8
2018-03-06T19:14:10.845Z,33.9
2018-03-06T19:15:00.925Z,35
2018-03-06T19:15:50.542Z,35.9
2018-03-06T19:16:41.327Z,36.4
2018-03-06T19:17:31.064Z,36.4
2018-03-06T19:18:21.438Z,36.4
2018-03-06T19:19:11.802Z,36.2
2018-03-06T19:20:01.036Z,35.9
2018-03-06T19:20:51.347Z,35.7
2018-03-06T19:21:41.129Z,35.4
2018-03-06T19:22:31.717Z,35.1
2018-03-06T19:23:21.190Z,34.7
2018-03-06T19:24:11.560Z,34.4
2018-03-06T19:25:01.952Z,34.1
2018-03-06T19:25:51.415Z,33.8
2018-03-06T19:26:42.360Z,33.4
2018-03-06T19:27:32.070Z,33.1
2018-03-06T19:28:22.129Z,32.9
2018-03-06T19:29:12.530Z,32.6
2018-03-06T19:30:02.245Z,32.3
2018-03-06T19:30:51.980Z,32.1
2018-03-06T19:31:42.309Z,31.8
2018-03-06T19:32:32.078Z,31.6
2018-03-06T19:33:21.989Z,31.3
2018-03-06T19:34:12.538Z,31.1
2018-03-06T19:35:02.003Z,30.9
2018-03-06T19:35:51.879Z,30.7
2018-03-06T19:36:42.658Z,30.5
2018-03-06T19:37:33.046Z,30.3
2018-03-06T19:38:22.267Z,30.1
2018-03-06T19:39:13.095Z,29.9
2018-03-06T19:40:02.923Z,29.7
2018-03-06T19:40:52.686Z,29.5
2018-03-06T19:41:42.228Z,29.3
2018-03-06T19:42:32.931Z,29.2
2018-03-06T19:43:23.195Z,29
2018-03-06T19:44:12.717Z,28.8
2018-03-06T19:45:03.260Z,28.6
2018-03-06T19:45:52.845Z,28.6
2018-03-06T19:46:43.068Z,28.9
2018-03-06T19:47:32.026Z,30.2
2018-03-06T19:48:23.480Z,31.4
2018-03-06T19:49:13.260Z,32.7
2018-03-06T19:50:03.133Z,33.8
2018-03-06T19:50:52.930Z,34.8
2018-03-06T19:51:42.784Z,35.8
2018-03-06T19:52:32.497Z,36.4
2018-03-06T19:53:22.965Z,36.6
2018-03-06T19:54:12.982Z,36.5
2018-03-06T19:55:02.988Z,36.3
2018-03-06T19:55:53.380Z,36.1
2018-03-06T19:56:43.928Z,35.8
2018-03-06T19:57:32.855Z,35.5
2018-03-06T19:58:23.411Z,35.2
2018-03-06T19:59:13.942Z,34.8
2018-03-06T20:00:03.529Z,34.5
2018-03-06T20:00:53.996Z,34.2
2018-03-06T20:01:43.633Z,33.9
2018-03-06T20:02:33.663Z,33.6
2018-03-06T20:03:24.094Z,33.3
2018-03-06T20:04:12.952Z,33
2018-03-06T20:05:03.865Z,32.7
2018-03-06T20:05:54.457Z,32.4
2018-03-06T20:06:43.791Z,32.1
2018-03-06T20:07:34.106Z,31.9
2018-03-06T20:08:25.078Z,31.6
2018-03-06T20:09:14.478Z,31.4
2018-03-06T20:10:05.133Z,31.1
2018-03-06T20:10:53.799Z,30.9
2018-03-06T20:11:44.661Z,30.7
2018-03-06T20:12:34.989Z,30.5
2018-03-06T20:13:25.072Z,30.3
2018-03-06T20:14:15.361Z,30.1
2018-03-06T20:15:05.204Z,29.9
2018-03-06T20:15:54.677Z,29.7
2018-03-06T20:16:45.038Z,29.5
2018-03-06T20:17:34.388Z,29.3
2018-03-06T20:18:25.408Z,29.2
2018-03-06T20:19:15.536Z,29
2018-03-06T20:20:05.721Z,28.8
2018-03-06T20:20:55.201Z,28.7
2018-03-06T20:21:46.000Z,28.5
2018-03-06T20:22:36.200Z,28.6
2018-03-06T20:23:25.971Z,29.7
2018-03-06T20:24:16.069Z,31
2018-03-06T20:25:05.337Z,32.2
2018-03-06T20:25:56.443Z,33.4
2018-03-06T20:26:45.960Z,34.4
2018-03-06T20:27:36.256Z,35.4
2018-03-06T20:28:26.652Z,36.2
2018-03-06T20:29:16.133Z,36.6
2018-03-06T20:30:06.664Z,36.6
2018-03-06T20:30:55.663Z,36.4
2018-03-06T20:31:45.631Z,36.3
2018-03-06T20:32:36.625Z,36
2018-03-06T20:33:26.424Z,35.7
2018-03-06T20:34:16.809Z,35.4
2018-03-06T20:35:05.638Z,35
2018-03-06T20:35:56.898Z,34.7
2018-03-06T20:36:46.628Z,34.4
2018-03-06T20:37:36.753Z,34.1
2018-03-06T20:38:26.328Z,33.8
2018-03-06T20:39:16.325Z,33.4
2018-03-06T20:40:06.948Z,33.1
2018-03-06T20:40:56.543Z,32.9
2018-03-06T20:41:46.986Z,32.6
2018-03-06T20:42:37.631Z,32.3
2018-03-06T20:43:27.491Z,32
2018-03-06T20:44:17.138Z,31.8
2018-03-06T20:45:06.960Z,31.5
2018-03-06T20:45:57.187Z,31.3
2018-03-06T20:46:46.681Z,31.1
2018-03-06T20:47:37.062Z,30.8
2018-03-06T20:48:28.069Z,30.6
2018-03-06T20:49:17.224Z,30.4
2018-03-06T20:50:07.333Z,30.2
2018-03-06T20:50:56.152Z,30
2018-03-06T20:51:47.738Z,29.8
2018-03-06T20:52:38.137Z,29.6
2018-03-06T20:53:27.121Z,29.4
2018-03-06T20:54:17.143Z,29.3
2018-03-06T20:55:07.605Z,29.1
2018-03-06T20:55:57.451Z,28.9
2018-03-06T20:56:48.259Z,28.7
2018-03-06T20:57:38.076Z,28.6
2018-03-06T20:58:28.037Z,28.6
2018-03-06T20:59:17.785Z,29.3
2018-03-06T21:00:08.215Z,30.5
2018-03-06T21:00:58.565Z,31.7
2018-03-06T21:01:48.282Z,32.8
2018-03-06T21:02:37.796Z,33.9
2018-03-06T21:03:29.278Z,34.9
2018-03-06T21:04:18.176Z,35.8
2018-03-06T21:05:08.004Z,36.4
2018-03-06T21:05:56.808Z,36.7
2018-03-06T21:06:47.609Z,36.8
2018-03-06T21:07:38.168Z,36.6
2018-03-06T21:08:28.556Z,36.4
2018-03-06T21:09:17.329Z,36.1
2018-03-06T21:10:07.876Z,35.8
2018-03-06T21:10:58.021Z,35.4
2018-03-06T21:11:46.962Z,35.1
2018-03-06T21:12:37.649Z,34.8
2018-03-06T21:13:27.658Z,34.4
2018-03-06T21:14:17.545Z,34.1
2018-03-06T21:15:06.851Z,33.8
2018-03-06T21:15:57.840Z,33.5
2018-03-06T21:16:47.610Z,33.2
2018-03-06T21:17:38.072Z,32.9
2018-03-06T21:18:28.508Z,32.6
2018-03-06T21:19:18.792Z,32.3
2018-03-06T21:20:09.088Z,32.1
2018-03-06T21:20:58.815Z,31.8
2018-03-06T21:21:49.155Z,31.5
2018-03-06T21:22:38.643Z,31.3
2018-03-06T21:23:29.549Z,31.1
2018-03-06T21:24:19.361Z,30.8
2018-03-06T21:25:10.755Z,30.6
2018-03-06T21:25:59.110Z,30.4
2018-03-06T21:26:50.285Z,30.2
2018-03-06T21:27:39.533Z,30
2018-03-06T21:28:30.161Z,29.8
2018-03-06T21:29:18.955Z,29.6
2018-03-06T21:30:09.936Z,29.8
2018-03-06T21:30:59.344Z,30.6
2018-03-06T21:31:50.506Z,31.8
2018-03-06T21:32:39.864Z,32.9
2018-03-06T21:33:28.698Z,33.9
2018-03-06T21:34:18.855Z,34.9
2018-03-06T21:35:09.990Z,35.8
2018-03-06T21:36:00.035Z,36.4
2018-03-06T21:36:51.402Z,36.8
2018-03-06T21:37:40.039Z,36.8
2018-03-06T21:38:31.420Z,36.6
2018-03-06T21:39:20.822Z,36.4
2018-03-06T21:40:09.433Z,36.1
2018-03-06T21:41:00.410Z,35.8
2018-03-06T21:41:49.657Z,35.4
2018-03-06T21:42:39.844Z,35.1
2018-03-06T21:43:29.277Z,34.8
2018-03-06T21:44:20.848Z,34.5
2018-03-06T21:45:11.917Z,34.1
2018-03-06T21:46:00.675Z,33.8
2018-03-06T21:46:50.968Z,33.5
2018-03-06T21:47:41.911Z,33.2
2018-03-06T21:48:31.692Z,32.9
2018-03-06T21:49:21.786Z,32.6
2018-03-06T21:50:11.567Z,32.3
2018-03-06T21:51:01.371Z,32.1
2018-03-06T21:51:52.208Z,31.8
2018-03-06T21:52:41.726Z,31.6
2018-03-06T21:53:32.318Z,31.3
2018-03-06T21:54:22.350Z,31.1
2018-03-06T21:55:12.193Z,30.9
2018-03-06T21:56:01.661Z,30.6
2018-03-06T21:56:52.970Z,30.4
2018-03-06T21:57:42.331Z,30.3
2018-03-06T21:58:32.669Z,30
2018-03-06T21:59:22.623Z,29.8
2018-03-06T22:00:12.761Z,29.8
2018-03-06T22:01:01.696Z,29.9
2018-03-06T22:01:52.644Z,30.9
2018-03-06T22:02:42.503Z,32
2018-03-06T22:03:32.719Z,33.1
2018-03-06T22:04:21.940Z,34.1
2018-03-06T22:05:12.039Z,35.1
2018-03-06T22:06:02.923Z,35.9
2018-03-06T22:06:52.999Z,36.4
2018-03-06T22:07:42.453Z,36.7
2018-03-06T22:08:32.796Z,36.7
2018-03-06T22:09:22.970Z,36.5
2018-03-06T22:10:12.353Z,36.3
2018-03-06T22:11:03.295Z,36
2018-03-06T22:11:53.077Z,35.7
2018-03-06T22:12:43.408Z,35.3
2018-03-06T22:13:32.330Z,35
2018-03-06T22:14:23.160Z,34.7
2018-03-06T22:15:13.013Z,34.3
2018-03-06T22:16:03.418Z,34
2018-03-06T22:16:53.420Z,33.7
2018-03-06T22:17:43.405Z,33.4
2018-03-06T22:18:34.113Z,33.1
2018-03-06T22:19:23.033Z,32.8
2018-03-06T22:20:12.859Z,32.5
2018-03-06T22:21:03.508Z,32.3
2018-03-06T22:21:54.287Z,31.9
2018-03-06T22:22:43.447Z,31.7
2018-03-06T22:23:33.009Z,31.5
2018-03-06T22:24:23.008Z,31.3
2018-03-06T22:25:14.259Z,31
2018-03-06T22:26:04.320Z,30.8
2018-03-06T22:26:54.060Z,30.6
2018-03-06T22:27:44.109Z,30.4
2018-03-06T22:28:33.970Z,30.1
2018-03-06T22:29:24.514Z,29.9
2018-03-06T22:30:14.584Z,29.8
2018-03-06T22:31:04.054Z,30
2018-03-06T22:31:54.667Z,30.4
2018-03-06T22:32:44.176Z,31.6
2018-03-06T22:33:34.757Z,32.6
2018-03-06T22:34:24.049Z,33.8
2018-03-06T22:35:14.407Z,34.8
2018-03-06T22:36:04.239Z,35.6
2018-03-06T22:36:53.979Z,36.3
2018-03-06T22:37:45.101Z,36.6
2018-03-06T22:38:35.656Z,36.7
2018-03-06T22:39:24.938Z,36.6
2018-03-06T22:40:15.544Z,36.4
2018-03-06T22:41:04.469Z,36.1
2018-03-06T22:41:55.378Z,35.8
2018-03-06T22:42:45.691Z,35.4
2018-03-06T22:43:35.254Z,35.1
2018-03-06T22:44:25.334Z,34.8
2018-03-06T22:45:15.375Z,34.4
2018-03-06T22:46:05.646Z,34.1
2018-03-06T22:46:55.741Z,33.8
2018-03-06T22:47:46.053Z,33.4
2018-03-06T22:48:35.072Z,33.1
2018-03-06T22:49:25.963Z,32.9
2018-03-06T22:50:15.901Z,32.6
2018-03-06T22:51:05.439Z,32.3
2018-03-06T22:51:55.551Z,32
2018-03-06T22:52:46.108Z,31.8
2018-03-06T22:53:35.591Z,31.5
2018-03-06T22:54:25.753Z,31.3
2018-03-06T22:55:16.037Z,31.1
2018-03-06T22:56:06.389Z,30.8
2018-03-06T22:56:55.281Z,30.6
2018-03-06T22:57:46.743Z,30.4
2018-03-06T22:58:36.199Z,30.2
2018-03-06T22:59:26.049Z,29.9
2018-03-06T23:00:16.383Z,29.8
2018-03-06T23:01:06.125Z,29.7
2018-03-06T23:01:56.455Z,29.9
2018-03-06T23:02:47.380Z,31
2018-03-06T23:03:36.895Z,32.1
2018-03-06T23:04:26.917Z,33.3
2018-03-06T23:05:16.992Z,34.3
2018-03-06T23:06:06.048Z,35.3
2018-03-06T23:06:57.065Z,36
2018-03-06T23:07:46.427Z,36.5
2018-03-06T23:08:36.639Z,36.7
2018-03-06T23:09:26.487Z,36.6
2018-03-06T23:10:17.354Z,36.4
2018-03-06T23:11:07.382Z,36.2
2018-03-06T23:11:57.173Z,35.9
2018-03-06T23:12:47.206Z,35.6
2018-03-06T23:13:37.676Z,35.2
2018-03-06T23:14:27.212Z,34.9
2018-03-06T23:15:17.920Z,34.6
2018-03-06T23:16:07.762Z,34.2
2018-03-06T23:16:57.229Z,33.9
2018-03-06T23:17:47.548Z,33.6
2018-03-06T23:18:37.607Z,33.3
2018-03-06T23:19:27.674Z,32.9
2018-03-06T23:20:17.439Z,32.7
2018-03-06T23:21:08.114Z,32.3
2018-03-06T23:21:57.321Z,32.1
2018-03-06T23:22:47.401Z,31.8
2018-03-06T23:23:37.368Z,31.6
2018-03-06T23:24:28.332Z,31.3
2018-03-06T23:25:18.359Z,31.1
2018-03-06T23:26:06.713Z,30.9
2018-03-06T23:26:57.681Z,30.6
2018-03-06T23:27:47.968Z,30.4
2018-03-06T23:28:38.316Z,30.3
2018-03-06T23:29:28.411Z,30
2018-03-06T23:30:18.986Z,29.8
2018-03-06T23:31:08.226Z,29.6
2018-03-06T23:31:58.205Z,29.9
2018-03-06T23:32:49.141Z,30.2
2018-03-06T23:33:38.221Z,31.4
2018-03-06T23:34:28.995Z,32.5
2018-03-06T23:35:19.025Z,33.6
2018-03-06T23:36:09.140Z,34.6
2018-03-06T23:36:58.875Z,35.6
2018-03-06T23:37:49.228Z,36.3
2018-03-06T23:38:37.995Z,36.6
2018-03-06T23:39:28.250Z,36.7
2018-03-06T23:40:18.399Z,36.5
2018-03-06T23:41:08.678Z,36.3
2018-03-06T23:41:58.840Z,36.1
2018-03-06T23:42:49.867Z,35.7
2018-03-06T23:43:38.843Z,35.4
2018-03-06T23:44:29.148Z,35.1
2018-03-06T23:45:19.485Z,34.7
2018-03-06T23:46:08.422Z,34.4
2018-03-06T23:46:58.795Z,34.1
2018-03-06T23:47:49.619Z,33.8
2018-03-06T23:48:39.400Z,33.4
2018-03-06T23:49:29.632Z,33.1
2018-03-06T23:50:19.820Z,32.8
2018-03-06T23:51:08.590Z,32.5
2018-03-06T23:51:59.348Z,32.3
2018-03-06T23:52:49.174Z,32
2018-03-06T23:53:40.079Z,31.7
2018-03-06T23:54:29.134Z,31.4
2018-03-06T23:55:19.082Z,31.2
2018-03-06T23:56:09.138Z,31
2018-03-06T23:56:59.817Z,30.8
2018-03-06T23:57:49.594Z,30.5
2018-03-06T23:58:38.831Z,30.3
2018-03-06T23:59:30.186Z,30.1
